Watertown, Wisconsin
Current Conditions -  °F | °C
As of 11:55 AM on Thursday 30 Oct 2014 (Local Time) from KRYV Reporting Station
Scattered Clouds Scattered Clouds  
Wind Chill: 43°   Ceiling: Unl
Heat Index: 46°   Visibility: 10mi
Dew Point: 35°   Wind: 6mph
Humidity: 66%   Direction: 240°WSW
Pressure: 30.09"   Gusts: NA
Location:  43.2°N, 88.72°W
Report Text: KRYV 301655Z AUTO 24005KT 10SM SCT110 08/02 A3009 RMK AO2 T00780018
Loading
Personal Weather Stations






























Interactive Weather Map New forecast layout! Learn more

10-Day Weather Forecast

Advertisements
Track Severe Weather on mobile